New Market, Minnesota
Current Conditions -  °F | °C
As of 2:26 AM on Thursday 27 Nov 2014 (Local Time) from KLVN Reporting Station
Clear Clear  
Wind Chill: -11°   Ceiling: Unl
Heat Index:   Visibility: 10mi
Dew Point: -2°   Wind: 9mph
Humidity: 78%   Direction: 330°NNW
Pressure: 30.43"   Gusts: NA
Location:  44.57°N, 93.35°W
Report Text: KLVN 270826Z AUTO 33008KT 10SM CLR M16/M19 A3043 RMK AO2
Loading
Personal Weather Stations






























Interactive Weather Map New forecast layout! Learn more

10-Day Weather Forecast

Advertisements
Track Severe Weather on mobile